sensor_id;sensor_type;location;lat;lon;timestamp;pressure;altitude;pressure_sealevel;temperature;humidity
63552;BME280;49698;48.072;7.800;2024-02-21T00:01:41;100492.75;;;4.75;100.00
63552;BME280;49698;48.072;7.800;2024-02-21T00:04:09;100482.13;;;4.75;100.00
63552;BME280;49698;48.072;7.800;2024-02-21T00:06:37;100490.72;;;4.77;100.00
63552;BME280;49698;48.072;7.800;2024-02-21T00:09:06;100489.44;;;4.79;100.00
63552;BME280;49698;48.072;7.800;2024-02-21T00:11:36;100484.94;;;4.80;100.00
63552;BME280;49698;48.072;7.800;2024-02-21T00:14:04;100480.44;;;4.80;100.00
63552;BME280;49698;48.072;7.800;2024-02-21T00:16:32;100482.88;;;4.82;100.00
63552;BME280;49698;48.072;7.800;2024-02-21T00:19:00;100486.59;;;4.81;100.00
63552;BME280;49698;48.072;7.800;2024-02-21T00:21:29;100479.16;;;4.83;100.00
63552;BME280;49698;48.072;7.800;2024-02-21T00:23:57;100478.34;;;4.82;100.00
63552;BME280;49698;48.072;7.800;2024-02-21T00:26:26;100485.09;;;4.85;100.00
63552;BME280;49698;48.072;7.800;2024-02-21T00:28:54;100477.13;;;4.85;100.00
63552;BME280;49698;48.072;7.800;2024-02-21T00:31:22;100486.72;;;4.86;100.00
63552;BME280;49698;48.072;7.800;2024-02-21T00:33:50;100482.00;;;4.88;100.00
63552;BME280;49698;48.072;7.800;2024-02-21T00:36:18;100474.59;;;4.90;100.00
63552;BME280;49698;48.072;7.800;2024-02-21T00:38:46;100464.75;;;4.90;100.00
63552;BME280;49698;48.072;7.800;2024-02-21T00:41:14;100467.22;;;4.92;100.00
63552;BME280;49698;48.072;7.800;2024-02-21T00:43:44;100470.47;;;4.94;100.00
63552;BME280;49698;48.072;7.800;2024-02-21T00:46:12;100484.41;;;4.96;100.00
63552;BME280;49698;48.072;7.800;2024-02-21T00:48:40;100476.41;;;4.96;100.00
63552;BME280;49698;48.072;7.800;2024-02-21T00:51:08;100476.16;;;4.98;100.00
63552;BME280;49698;48.072;7.800;2024-02-21T00:53:36;100467.13;;;4.99;100.00
63552;BME280;49698;48.072;7.800;2024-02-21T00:56:05;100457.28;;;4.99;100.00
63552;BME280;49698;48.072;7.800;2024-02-21T00:58:33;100442.16;;;5.00;100.00
63552;BME280;49698;48.072;7.800;2024-02-21T01:01:03;100450.13;;;5.00;100.00
63552;BME280;49698;48.072;7.800;2024-02-21T01:03:31;100442.94;;;5.00;100.00
63552;BME280;49698;48.072;7.800;2024-02-21T01:05:59;100439.47;;;5.00;100.00
63552;BME280;49698;48.072;7.800;2024-02-21T01:08:27;100437.63;;;5.00;100.00
63552;BME280;49698;48.072;7.800;2024-02-21T01:10:55;100439.47;;;5.00;100.00
63552;BME280;49698;48.072;7.800;2024-02-21T01:13:23;100436.81;;;5.00;100.00
63552;BME280;49698;48.072;7.800;2024-02-21T01:15:51;100436.59;;;5.01;100.00
63552;BME280;49698;48.072;7.800;2024-02-21T01:18:22;100419.56;;;5.02;100.00
63552;BME280;49698;48.072;7.800;2024-02-21T01:20:50;100421.41;;;5.02;100.00
63552;BME280;49698;48.072;7.800;2024-02-21T01:23:19;100423.25;;;5.01;100.00
63552;BME280;49698;48.072;7.800;2024-02-21T01:25:47;100411.78;;;5.01;100.00
63552;BME280;49698;48.072;7.800;2024-02-21T01:28:15;100403.81;;;5.01;100.00
63552;BME280;49698;48.072;7.800;2024-02-21T01:30:43;100400.09;;;5.02;100.00
63552;BME280;49698;48.072;7.800;2024-02-21T01:33:11;100394.19;;;5.00;100.00
63552;BME280;49698;48.072;7.800;2024-02-21T01:35:40;100385.16;;;5.01;100.00
63552;BME280;49698;48.072;7.800;2024-02-21T01:38:09;100376.09;;;5.02;100.00
63552;BME280;49698;48.072;7.800;2024-02-21T01:40:37;100368.94;;;5.02;100.00
63552;BME280;49698;48.072;7.800;2024-02-21T01:43:15;100356.41;;;5.03;100.00
63552;BME280;49698;48.072;7.800;2024-02-21T01:45:45;100357.22;;;5.03;100.00
63552;BME280;49698;48.072;7.800;2024-02-21T01:48:14;100353.75;;;5.03;100.00
63552;BME280;49698;48.072;7.800;2024-02-21T01:50:44;100357.22;;;5.03;100.00
63552;BME280;49698;48.072;7.800;2024-02-21T01:53:13;100349.22;;;5.03;100.00
63552;BME280;49698;48.072;7.800;2024-02-21T01:55:45;100343.09;;;5.03;100.00
63552;BME280;49698;48.072;7.800;2024-02-21T01:58:13;100341.72;;;5.00;100.00
63552;BME280;49698;48.072;7.800;2024-02-21T02:00:42;100332.06;;;4.99;100.00
63552;BME280;49698;48.072;7.800;2024-02-21T02:03:12;100334.72;;;4.99;100.00
63552;BME280;49698;48.072;7.800;2024-02-21T02:05:45;100331.47;;;4.97;100.00
63552;BME280;49698;48.072;7.800;2024-02-21T02:08:14;100321.06;;;4.96;100.00
63552;BME280;49698;48.072;7.800;2024-02-21T02:10:43;100320.69;;;4.92;100.00
63552;BME280;49698;48.072;7.800;2024-02-21T02:13:11;100308.00;;;4.87;100.00
63552;BME280;49698;48.072;7.800;2024-02-21T02:15:40;100314.00;;;4.83;100.00
63552;BME280;49698;48.072;7.800;2024-02-21T02:18:08;100317.72;;;4.82;100.00
63552;BME280;49698;48.072;7.800;2024-02-21T02:20:37;100328.00;;;4.78;100.00
63552;BME280;49698;48.072;7.800;2024-02-21T02:23:10;100329.25;;;4.76;100.00
63552;BME280;49698;48.072;7.800;2024-02-21T02:25:40;100320.69;;;4.74;100.00
63552;BME280;49698;48.072;7.800;2024-02-21T02:28:08;100319.06;;;4.73;100.00
63552;BME280;49698;48.072;7.800;2024-02-21T02:30:36;100324.41;;;4.73;100.00
63552;BME280;49698;48.072;7.800;2024-02-21T02:33:05;100319.06;;;4.73;100.00
63552;BME280;49698;48.072;7.800;2024-02-21T02:35:33;100307.38;;;4.74;100.00
63552;BME280;49698;48.072;7.800;2024-02-21T02:38:02;100311.06;;;4.73;100.00
63552;BME280;49698;48.072;7.800;2024-02-21T02:40:30;100304.09;;;4.72;100.00
63552;BME280;49698;48.072;7.800;2024-02-21T02:43:00;100299.38;;;4.74;100.00
63552;BME280;49698;48.072;7.800;2024-02-21T02:45:28;100283.16;;;4.75;100.00
63552;BME280;49698;48.072;7.800;2024-02-21T02:47:56;100277.63;;;4.77;100.00
63552;BME280;49698;48.072;7.800;2024-02-21T02:50:25;100279.25;;;4.78;100.00
63552;BME280;49698;48.072;7.800;2024-02-21T02:52:53;100281.69;;;4.79;100.00
63552;BME280;49698;48.072;7.800;2024-02-21T02:55:22;100280.66;;;4.80;100.00
63552;BME280;49698;48.072;7.800;2024-02-21T02:57:50;100276.16;;;4.81;100.00
63552;BME280;49698;48.072;7.800;2024-02-21T03:00:20;100278.81;;;4.81;100.00
63552;BME280;49698;48.072;7.800;2024-02-21T03:02:49;100266.31;;;4.81;100.00
63552;BME280;49698;48.072;7.800;2024-02-21T03:05:18;100264.44;;;4.82;100.00
63552;BME280;49698;48.072;7.800;2024-02-21T03:07:47;100252.19;;;4.81;100.00
63552;BME280;49698;48.072;7.800;2024-02-21T03:10:16;100254.59;;;4.82;100.00
63552;BME280;49698;48.072;7.800;2024-02-21T03:12:45;100243.38;;;4.80;100.00
63552;BME280;49698;48.072;7.800;2024-02-21T03:15:13;100253.66;;;4.77;100.00
63552;BME280;49698;48.072;7.800;2024-02-21T03:17:43;100245.69;;;4.77;100.00
63552;BME280;49698;48.072;7.800;2024-02-21T03:20:11;100239.75;;;4.75;100.00
63552;BME280;49698;48.072;7.800;2024-02-21T03:22:40;100239.97;;;4.73;100.00
63552;BME280;49698;48.072;7.800;2024-02-21T03:25:09;100234.84;;;4.72;100.00
63552;BME280;49698;48.072;7.800;2024-02-21T03:27:37;100234.28;;;4.70;100.00
63552;BME280;49698;48.072;7.800;2024-02-21T03:30:06;100233.25;;;4.71;100.00
63552;BME280;49698;48.072;7.800;2024-02-21T03:32:35;100237.16;;;4.68;100.00
63552;BME280;49698;48.072;7.800;2024-02-21T03:35:04;100229.41;;;4.66;100.00
63552;BME280;49698;48.072;7.800;2024-02-21T03:37:32;100216.31;;;4.65;100.00
63552;BME280;49698;48.072;7.800;2024-02-21T03:40:00;100203.22;;;4.63;100.00
63552;BME280;49698;48.072;7.800;2024-02-21T03:42:28;100208.78;;;4.62;100.00
63552;BME280;49698;48.072;7.800;2024-02-21T03:44:58;100207.97;;;4.61;100.00
63552;BME280;49698;48.072;7.800;2024-02-21T03:47:26;100212.69;;;4.59;100.00
63552;BME280;49698;48.072;7.800;2024-02-21T03:49:54;100196.56;;;4.54;100.00
63552;BME280;49698;48.072;7.800;2024-02-21T03:52:23;100199.91;;;4.50;100.00
63552;BME280;49698;48.072;7.800;2024-02-21T03:54:51;100195.03;;;4.47;100.00
63552;BME280;49698;48.072;7.800;2024-02-21T03:57:21;100196.50;;;4.43;100.00
63552;BME280;49698;48.072;7.800;2024-02-21T03:59:50;100193.25;;;4.40;100.00
63552;BME280;49698;48.072;7.800;2024-02-21T04:02:18;100196.13;;;4.39;100.00
63552;BME280;49698;48.072;7.800;2024-02-21T04:04:46;100192.66;;;4.38;100.00
63552;BME280;49698;48.072;7.800;2024-02-21T04:07:15;100195.53;;;4.37;100.00
63552;BME280;49698;48.072;7.800;2024-02-21T04:09:44;100196.56;;;4.36;100.00
63552;BME280;49698;48.072;7.800;2024-02-21T04:12:12;100190.22;;;4.37;100.00
63552;BME280;49698;48.072;7.800;2024-02-21T04:14:40;100192.06;;;4.36;100.00
63552;BME280;49698;48.072;7.800;2024-02-21T04:17:09;100177.38;;;4.34;100.00
63552;BME280;49698;48.072;7.800;2024-02-21T04:19:37;100169.59;;;4.32;100.00
63552;BME280;49698;48.072;7.800;2024-02-21T04:22:05;100175.16;;;4.31;100.00
63552;BME280;49698;48.072;7.800;2024-02-21T04:24:33;100168.22;;;4.30;100.00
63552;BME280;49698;48.072;7.800;2024-02-21T04:27:04;100160.66;;;4.27;100.00
63552;BME280;49698;48.072;7.800;2024-02-21T04:29:33;100169.91;;;4.24;100.00
63552;BME280;49698;48.072;7.800;2024-02-21T04:32:01;100174.03;;;4.20;100.00
63552;BME280;49698;48.072;7.800;2024-02-21T04:34:30;100182.09;;;4.13;100.00
63552;BME280;49698;48.072;7.800;2024-02-21T04:36:58;100175.81;;;4.08;100.00
63552;BME280;49698;48.072;7.800;2024-02-21T04:39:26;100171.59;;;4.00;100.00
63552;BME280;49698;48.072;7.800;2024-02-21T04:41:54;100174.09;;;3.95;100.00
63552;BME280;49698;48.072;7.800;2024-02-21T04:44:23;100181.34;;;3.88;100.00
63552;BME280;49698;48.072;7.800;2024-02-21T04:46:51;100186.47;;;3.83;100.00
63552;BME280;49698;48.072;7.800;2024-02-21T04:49:19;100179.41;;;3.77;100.00
63552;BME280;49698;48.072;7.800;2024-02-21T04:51:47;100177.16;;;3.74;100.00
63552;BME280;49698;48.072;7.800;2024-02-21T04:54:15;100161.22;;;3.74;100.00
63552;BME280;49698;48.072;7.800;2024-02-21T04:56:43;100155.28;;;3.72;100.00
63552;BME280;49698;48.072;7.800;2024-02-21T04:59:11;100143.25;;;3.69;100.00
63552;BME280;49698;48.072;7.800;2024-02-21T05:01:41;100130.16;;;3.67;100.00
63552;BME280;49698;48.072;7.800;2024-02-21T05:04:09;100114.44;;;3.66;100.00
63552;BME280;49698;48.072;7.800;2024-02-21T05:06:37;100115.50;;;3.65;100.00
63552;BME280;49698;48.072;7.800;2024-02-21T05:09:06;100123.66;;;3.63;100.00
63552;BME280;49698;48.072;7.800;2024-02-21T05:11:35;100125.75;;;3.61;100.00
63552;BME280;49698;48.072;7.800;2024-02-21T05:14:03;100130.47;;;3.59;100.00
63552;BME280;49698;48.072;7.800;2024-02-21T05:16:31;100123.09;;;3.61;100.00
63552;BME280;49698;48.072;7.800;2024-02-21T05:19:01;100127.78;;;3.59;100.00
63552;BME280;49698;48.072;7.800;2024-02-21T05:21:30;100120.06;;;3.58;100.00
63552;BME280;49698;48.072;7.800;2024-02-21T05:23:59;100129.28;;;3.55;100.00
63552;BME280;49698;48.072;7.800;2024-02-21T05:26:27;100123.38;;;3.53;100.00
63552;BME280;49698;48.072;7.800;2024-02-21T05:28:55;100123.00;;;3.50;100.00
63552;BME280;49698;48.072;7.800;2024-02-21T05:31:26;100134.28;;;3.45;100.00
63552;BME280;49698;48.072;7.800;2024-02-21T05:34:12;100126.13;;;3.40;100.00
63552;BME280;49698;48.072;7.800;2024-02-21T05:36:40;100122.09;;;3.37;100.00
63552;BME280;49698;48.072;7.800;2024-02-21T05:39:08;100119.63;;;3.36;100.00
63552;BME280;49698;48.072;7.800;2024-02-21T05:41:36;100111.06;;;3.34;100.00
63552;BME280;49698;48.072;7.800;2024-02-21T05:44:04;100111.06;;;3.34;100.00
63552;BME280;49698;48.072;7.800;2024-02-21T05:46:33;100105.75;;;3.34;100.00
63552;BME280;49698;48.072;7.800;2024-02-21T05:49:02;100102.28;;;3.33;100.00
63552;BME280;49698;48.072;7.800;2024-02-21T05:51:33;100104.94;;;3.33;100.00
63552;BME280;49698;48.072;7.800;2024-02-21T05:54:01;100109.88;;;3.30;100.00
63552;BME280;49698;48.072;7.800;2024-02-21T05:56:29;100105.59;;;3.29;100.00
63552;BME280;49698;48.072;7.800;2024-02-21T05:58:57;100108.47;;;3.27;100.00
63552;BME280;49698;48.072;7.800;2024-02-21T06:01:25;100114.81;;;3.26;100.00
63552;BME280;49698;48.072;7.800;2024-02-21T06:03:53;100115.63;;;3.27;100.00
63552;BME280;49698;48.072;7.800;2024-02-21T06:06:21;100115.63;;;3.27;100.00
63552;BME280;49698;48.072;7.800;2024-02-21T06:08:51;100124.63;;;3.26;100.00
63552;BME280;49698;48.072;7.800;2024-02-21T06:11:19;100115.81;;;3.25;100.00
63552;BME280;49698;48.072;7.800;2024-02-21T06:13:47;100115.03;;;3.25;100.00
63552;BME280;49698;48.072;7.800;2024-02-21T06:16:15;100111.34;;;3.26;100.00
63552;BME280;49698;48.072;7.800;2024-02-21T06:18:43;100094.81;;;3.24;100.00
63552;BME280;49698;48.072;7.800;2024-02-21T06:21:11;100092.16;;;3.24;100.00
63552;BME280;49698;48.072;7.800;2024-02-21T06:23:39;100091.34;;;3.23;100.00
63552;BME280;49698;48.072;7.800;2024-02-21T06:26:08;100086.03;;;3.23;100.00
63552;BME280;49698;48.072;7.800;2024-02-21T06:28:36;100094.22;;;3.22;100.00
63552;BME280;49698;48.072;7.800;2024-02-21T06:31:04;100089.34;;;3.18;100.00
63552;BME280;49698;48.072;7.800;2024-02-21T06:33:32;100085.06;;;3.17;100.00
63552;BME280;49698;48.072;7.800;2024-02-21T06:36:00;100082.41;;;3.17;100.00
63552;BME280;49698;48.072;7.800;2024-02-21T06:38:28;100083.22;;;3.18;100.00
63552;BME280;49698;48.072;7.800;2024-02-21T06:40:56;100071.97;;;3.16;100.00
63552;BME280;49698;48.072;7.800;2024-02-21T06:43:28;100078.72;;;3.18;100.00
63552;BME280;49698;48.072;7.800;2024-02-21T06:45:56;100081.56;;;3.17;100.00
63552;BME280;49698;48.072;7.800;2024-02-21T06:48:24;100075.44;;;3.16;100.00
63552;BME280;49698;48.072;7.800;2024-02-21T06:50:51;100078.72;;;3.18;100.00
63552;BME280;49698;48.072;7.800;2024-02-21T06:53:19;100073.41;;;3.18;100.00
63552;BME280;49698;48.072;7.800;2024-02-21T06:55:47;100064.16;;;3.21;100.00
63552;BME280;49698;48.072;7.800;2024-02-21T06:58:15;100073.56;;;3.24;100.00
63552;BME280;49698;48.072;7.800;2024-02-21T07:00:44;100066.75;;;3.28;100.00
63552;BME280;49698;48.072;7.800;2024-02-21T07:03:12;100057.31;;;3.32;100.00
63552;BME280;49698;48.072;7.800;2024-02-21T07:05:40;100056.28;;;3.33;100.00
63552;BME280;49698;48.072;7.800;2024-02-21T07:08:08;100060.97;;;3.37;100.00
63552;BME280;49698;48.072;7.800;2024-02-21T07:10:36;100057.03;;;3.40;100.00
63552;BME280;49698;48.072;7.800;2024-02-21T07:13:04;100058.22;;;3.44;100.00
63552;BME280;49698;48.072;7.800;2024-02-21T07:15:32;100067.84;;;3.45;100.00
63552;BME280;49698;48.072;7.800;2024-02-21T07:18:01;100062.06;;;3.48;100.00
63552;BME280;49698;48.072;7.800;2024-02-21T07:20:29;100055.75;;;3.49;100.00
63552;BME280;49698;48.072;7.800;2024-02-21T07:22:57;100060.81;;;3.51;100.00
63552;BME280;49698;48.072;7.800;2024-02-21T07:25:24;100067.38;;;3.48;100.00
63552;BME280;49698;48.072;7.800;2024-02-21T07:27:52;100063.09;;;3.47;100.00
63552;BME280;49698;48.072;7.800;2024-02-21T07:30:20;100064.97;;;3.47;100.00
63552;BME280;49698;48.072;7.800;2024-02-21T07:32:48;100066.38;;;3.49;100.00
63552;BME280;49698;48.072;7.800;2024-02-21T07:35:20;100056.31;;;3.51;100.00
63552;BME280;49698;48.072;7.800;2024-02-21T07:37:48;100062.00;;;3.55;100.00
63552;BME280;49698;48.072;7.800;2024-02-21T07:40:16;100048.84;;;3.60;100.00
63552;BME280;49698;48.072;7.800;2024-02-21T07:42:44;100047.19;;;3.65;100.00
63552;BME280;49698;48.072;7.800;2024-02-21T07:45:13;100046.28;;;3.72;100.00
63552;BME280;49698;48.072;7.800;2024-02-21T07:47:41;100044.97;;;3.81;100.00
63552;BME280;49698;48.072;7.800;2024-02-21T07:50:09;100043.25;;;3.86;100.00
63552;BME280;49698;48.072;7.800;2024-02-21T07:52:38;100040.75;;;3.91;100.00
63552;BME280;49698;48.072;7.800;2024-02-21T07:55:06;100034.53;;;3.98;100.00
63552;BME280;49698;48.072;7.800;2024-02-21T07:57:34;100041.38;;;4.05;100.00
63552;BME280;49698;48.072;7.800;2024-02-21T08:00:02;100044.16;;;4.10;100.00
63552;BME280;49698;48.072;7.800;2024-02-21T08:02:37;100041.44;;;4.17;100.00
63552;BME280;49698;48.072;7.800;2024-02-21T08:05:06;100050.94;;;4.25;100.00
63552;BME280;49698;48.072;7.800;2024-02-21T08:07:34;100050.06;;;4.31;100.00
63552;BME280;49698;48.072;7.800;2024-02-21T08:10:04;100051.59;;;4.38;100.00
63552;BME280;49698;48.072;7.800;2024-02-21T08:12:33;100048.00;;;4.45;100.00
63552;BME280;49698;48.072;7.800;2024-02-21T08:15:01;100045.50;;;4.50;100.00
63552;BME280;49698;48.072;7.800;2024-02-21T08:17:30;100031.06;;;4.57;100.00
63552;BME280;49698;48.072;7.800;2024-02-21T08:19:58;100029.91;;;4.65;100.00
63552;BME280;49698;48.072;7.800;2024-02-21T08:22:26;100029.34;;;4.75;100.00
63552;BME280;49698;48.072;7.800;2024-02-21T08:24:57;100027.97;;;4.84;100.00
63552;BME280;49698;48.072;7.800;2024-02-21T08:27:26;100024.50;;;4.95;100.00
63552;BME280;49698;48.072;7.800;2024-02-21T08:29:54;100026.38;;;5.06;100.00
63552;BME280;49698;48.072;7.800;2024-02-21T08:32:21;100028.22;;;5.18;100.00
63552;BME280;49698;48.072;7.800;2024-02-21T08:34:50;100023.94;;;5.28;100.00
63552;BME280;49698;48.072;7.800;2024-02-21T08:37:18;100025.00;;;5.39;100.00
63552;BME280;49698;48.072;7.800;2024-02-21T08:39:47;100026.00;;;5.50;100.00
63552;BME280;49698;48.072;7.800;2024-02-21T08:42:15;100018.22;;;5.60;99.62
63552;BME280;49698;48.072;7.800;2024-02-21T08:44:44;100018.44;;;5.70;99.48
63552;BME280;49698;48.072;7.800;2024-02-21T08:47:12;100010.63;;;5.80;99.18
63552;BME280;49698;48.072;7.800;2024-02-21T08:49:40;100008.97;;;5.91;98.73
63552;BME280;49698;48.072;7.800;2024-02-21T08:52:08;100006.78;;;6.00;98.09
63552;BME280;49698;48.072;7.800;2024-02-21T08:54:36;99996.56;;;6.08;97.48
63552;BME280;49698;48.072;7.800;2024-02-21T08:57:04;99987.91;;;6.18;97.68
63552;BME280;49698;48.072;7.800;2024-02-21T08:59:32;99985.09;;;6.25;96.80
63552;BME280;49698;48.072;7.800;2024-02-21T09:02:01;99984.72;;;6.33;96.39
63552;BME280;49698;48.072;7.800;2024-02-21T09:04:29;99983.50;;;6.41;96.31
63552;BME280;49698;48.072;7.800;2024-02-21T09:06:57;99976.38;;;6.46;96.19
63552;BME280;49698;48.072;7.800;2024-02-21T09:09:28;99978.69;;;6.54;95.83
63552;BME280;49698;48.072;7.800;2024-02-21T09:11:58;99968.63;;;6.61;95.51
63552;BME280;49698;48.072;7.800;2024-02-21T09:14:32;99970.34;;;6.68;94.85
63552;BME280;49698;48.072;7.800;2024-02-21T09:17:02;99969.94;;;6.76;94.58
63552;BME280;49698;48.072;7.800;2024-02-21T09:19:30;99962.31;;;6.84;94.24
63552;BME280;49698;48.072;7.800;2024-02-21T09:21:58;99974.44;;;6.92;93.49
63552;BME280;49698;48.072;7.800;2024-02-21T09:24:26;99957.75;;;7.02;93.31
63552;BME280;49698;48.072;7.800;2024-02-21T09:26:54;99962.69;;;7.10;92.64
63552;BME280;49698;48.072;7.800;2024-02-21T09:29:22;99963.66;;;7.21;92.85
63552;BME280;49698;48.072;7.800;2024-02-21T09:31:51;99965.09;;;7.28;92.06
63552;BME280;49698;48.072;7.800;2024-02-21T09:34:21;99970.00;;;7.37;91.27
63552;BME280;49698;48.072;7.800;2024-02-21T09:36:49;99969.56;;;7.45;90.60
63552;BME280;49698;48.072;7.800;2024-02-21T09:39:17;99962.97;;;7.52;90.03
63552;BME280;49698;48.072;7.800;2024-02-21T09:41:50;99954.03;;;7.64;89.72
63552;BME280;49698;48.072;7.800;2024-02-21T09:44:19;99950.91;;;7.72;89.61
63552;BME280;49698;48.072;7.800;2024-02-21T09:46:52;99949.09;;;7.77;89.22
63552;BME280;49698;48.072;7.800;2024-02-21T09:49:28;99953.44;;;7.83;88.98
63552;BME280;49698;48.072;7.800;2024-02-21T09:51:57;99947.91;;;7.90;88.88
63552;BME280;49698;48.072;7.800;2024-02-21T09:54:29;99945.28;;;7.95;88.76
63552;BME280;49698;48.072;7.800;2024-02-21T09:56:58;99926.56;;;8.00;88.52
63552;BME280;49698;48.072;7.800;2024-02-21T09:59:27;99916.75;;;8.06;88.07
63552;BME280;49698;48.072;7.800;2024-02-21T10:01:55;99911.72;;;8.15;87.85
63552;BME280;49698;48.072;7.800;2024-02-21T10:04:23;99904.28;;;8.22;87.51
63552;BME280;49698;48.072;7.800;2024-02-21T10:06:53;99904.63;;;8.30;87.22
63552;BME280;49698;48.072;7.800;2024-02-21T10:09:22;99897.53;;;8.41;87.00
63552;BME280;49698;48.072;7.800;2024-02-21T10:11:50;99892.50;;;8.50;86.35
63552;BME280;49698;48.072;7.800;2024-02-21T10:14:18;99893.88;;;8.57;85.71
63552;BME280;49698;48.072;7.800;2024-02-21T10:16:47;99896.09;;;8.66;85.70
63552;BME280;49698;48.072;7.800;2024-02-21T10:19:17;99891.03;;;8.74;85.23
63552;BME280;49698;48.072;7.800;2024-02-21T10:22:00;99887.06;;;8.82;84.43
63552;BME280;49698;48.072;7.800;2024-02-21T10:24:30;99875.84;;;8.90;83.82
63552;BME280;49698;48.072;7.800;2024-02-21T10:27:01;99877.50;;;8.96;83.70
63552;BME280;49698;48.072;7.800;2024-02-21T10:29:28;99865.22;;;9.05;82.98
63552;BME280;49698;48.072;7.800;2024-02-21T10:32:06;99860.47;;;9.18;83.18
63552;BME280;49698;48.072;7.800;2024-02-21T10:34:36;99854.59;;;9.26;82.24
63552;BME280;49698;48.072;7.800;2024-02-21T10:37:07;99858.63;;;9.34;81.53
63552;BME280;49698;48.072;7.800;2024-02-21T10:39:37;99853.00;;;9.40;80.99
63552;BME280;49698;48.072;7.800;2024-02-21T10:42:06;99842.84;;;9.47;81.18
63552;BME280;49698;48.072;7.800;2024-02-21T10:44:37;99839.38;;;9.57;80.90
63552;BME280;49698;48.072;7.800;2024-02-21T10:47:08;99837.78;;;9.66;80.46
63552;BME280;49698;48.072;7.800;2024-02-21T10:49:39;99831.09;;;9.74;79.67
63552;BME280;49698;48.072;7.800;2024-02-21T10:52:13;99826.28;;;9.81;79.23
63552;BME280;49698;48.072;7.800;2024-02-21T10:54:45;99818.75;;;9.88;79.28
63552;BME280;49698;48.072;7.800;2024-02-21T10:57:17;99821.44;;;9.98;79.14
63552;BME280;49698;48.072;7.800;2024-02-21T10:59:47;99817.66;;;10.10;78.48
63552;BME280;49698;48.072;7.800;2024-02-21T11:02:15;99807.19;;;10.13;77.97
63552;BME280;49698;48.072;7.800;2024-02-21T11:04:43;99806.94;;;10.20;76.57
63552;BME280;49698;48.072;7.800;2024-02-21T11:07:13;99805.63;;;10.27;76.02
63552;BME280;49698;48.072;7.800;2024-02-21T11:09:50;99793.78;;;10.39;75.97
63552;BME280;49698;48.072;7.800;2024-02-21T11:12:19;99785.97;;;10.47;74.41
63552;BME280;49698;48.072;7.800;2024-02-21T11:14:48;99789.44;;;10.53;73.80
63552;BME280;49698;48.072;7.800;2024-02-21T11:17:15;99786.47;;;10.60;73.67
63552;BME280;49698;48.072;7.800;2024-02-21T11:19:44;99777.56;;;10.69;72.99
63552;BME280;49698;48.072;7.800;2024-02-21T11:22:16;99771.34;;;10.79;71.58
63552;BME280;49698;48.072;7.800;2024-02-21T11:24:44;99764.06;;;10.85;69.56
63552;BME280;49698;48.072;7.800;2024-02-21T11:27:12;99756.53;;;10.87;67.87
63552;BME280;49698;48.072;7.800;2024-02-21T11:29:42;99747.91;;;10.90;67.78
63552;BME280;49698;48.072;7.800;2024-02-21T11:32:10;99739.81;;;10.95;67.37
63552;BME280;49698;48.072;7.800;2024-02-21T11:34:38;99731.44;;;11.01;67.06
63552;BME280;49698;48.072;7.800;2024-02-21T11:37:13;99731.94;;;11.09;66.75
63552;BME280;49698;48.072;7.800;2024-02-21T11:39:43;99717.91;;;11.17;66.06
63552;BME280;49698;48.072;7.800;2024-02-21T11:42:12;99710.59;;;11.22;64.71
63552;BME280;49698;48.072;7.800;2024-02-21T11:44:40;99705.69;;;11.30;64.00
63552;BME280;49698;48.072;7.800;2024-02-21T11:47:09;99704.59;;;11.36;63.68
63552;BME280;49698;48.072;7.800;2024-02-21T11:49:37;99695.91;;;11.44;63.21
63552;BME280;49698;48.072;7.800;2024-02-21T11:52:06;99697.22;;;11.51;63.32
63552;BME280;49698;48.072;7.800;2024-02-21T11:54:34;99682.09;;;11.56;63.09
63552;BME280;49698;48.072;7.800;2024-02-21T11:57:03;99671.56;;;11.59;62.69
63552;BME280;49698;48.072;7.800;2024-02-21T11:59:31;99673.41;;;11.64;61.71
63552;BME280;49698;48.072;7.800;2024-02-21T12:01:59;99676.03;;;11.69;61.65
63552;BME280;49698;48.072;7.800;2024-02-21T12:04:27;99670.91;;;11.72;60.57
63552;BME280;49698;48.072;7.800;2024-02-21T12:06:56;99667.66;;;11.75;60.21
63552;BME280;49698;48.072;7.800;2024-02-21T12:09:24;99670.56;;;11.79;59.68
63552;BME280;49698;48.072;7.800;2024-02-21T12:12:01;99657.66;;;11.81;59.67
63552;BME280;49698;48.072;7.800;2024-02-21T12:14:31;99657.63;;;11.86;59.13
63552;BME280;49698;48.072;7.800;2024-02-21T12:17:00;99649.25;;;11.88;58.37
63552;BME280;49698;48.072;7.800;2024-02-21T12:19:28;99648.09;;;11.94;57.68
63552;BME280;49698;48.072;7.800;2024-02-21T12:21:56;99638.88;;;12.00;56.46
63552;BME280;49698;48.072;7.800;2024-02-21T12:24:25;99646.34;;;12.08;55.27
63552;BME280;49698;48.072;7.800;2024-02-21T12:26:53;99625.00;;;12.12;54.24
63552;BME280;49698;48.072;7.800;2024-02-21T12:29:22;99624.97;;;12.17;53.33
63552;BME280;49698;48.072;7.800;2024-02-21T12:31:52;99623.84;;;12.18;51.73
63552;BME280;49698;48.072;7.800;2024-02-21T12:34:21;99620.88;;;12.19;51.90
63552;BME280;49698;48.072;7.800;2024-02-21T12:36:53;99612.50;;;12.21;51.52
63552;BME280;49698;48.072;7.800;2024-02-21T12:39:20;99601.97;;;12.24;51.24
63552;BME280;49698;48.072;7.800;2024-02-21T12:41:48;99602.97;;;12.29;51.42
63552;BME280;49698;48.072;7.800;2024-02-21T12:44:16;99599.41;;;12.33;51.18
63552;BME280;49698;48.072;7.800;2024-02-21T12:46:44;99581.88;;;12.36;50.21
63552;BME280;49698;48.072;7.800;2024-02-21T12:49:14;99573.47;;;12.37;49.39
63552;BME280;49698;48.072;7.800;2024-02-21T12:51:42;99571.31;;;12.39;48.71
63552;BME280;49698;48.072;7.800;2024-02-21T12:54:10;99556.75;;;12.40;48.27
63552;BME280;49698;48.072;7.800;2024-02-21T12:56:38;99557.75;;;12.44;48.60
63552;BME280;49698;48.072;7.800;2024-02-21T12:59:06;99552.38;;;12.44;48.03
63552;BME280;49698;48.072;7.800;2024-02-21T13:01:35;99538.59;;;12.46;48.00
63552;BME280;49698;48.072;7.800;2024-02-21T13:04:04;99537.78;;;12.45;47.98